Time;durP1;ratioP1;P1;durP2;ratioP2;P2;SDS_P1;SDS_P2;PMS_P1;PMS_P2;Temp;Humidity;BMP_temperature;BMP_pressure;BME280_temperature;BME280_humidity;BME280_pressure;Samples;Min_cycle;Max_cycle;Signal;HPM_P1;HPM_P2
2021/09/25 00:00:56;;;;;;;11.63;9.10;;;410.50;1766.40;;;;;;5116087;28;20043;-62
2021/09/25 00:03:22;;;;;;;16.55;9.68;;;410.40;1766.40;;;;;;5114473;28;20044;-62
2021/09/25 00:05:48;;;;;;;15.63;9.50;;;410.40;1792.00;;;;;;5115755;28;20042;-62
2021/09/25 00:08:14;;;;;;;11.95;9.20;;;410.40;1766.40;;;;;;5115982;28;20023;-62
2021/09/25 00:10:41;;;;;;;11.32;9.45;;;410.40;1792.00;;;;;;5116357;28;20473;-62
2021/09/25 00:13:07;;;;;;;16.98;9.82;;;410.40;1766.40;;;;;;5115373;28;20118;-62
2021/09/25 00:15:33;;;;;;;15.57;9.27;;;410.40;1766.40;;;;;;5116021;28;20034;-62
2021/09/25 00:18:00;;;;;;;14.88;9.48;;;410.40;1792.00;;;;;;5115835;28;20027;-62
2021/09/25 00:20:26;;;;;;;12.45;9.68;;;410.30;1766.40;;;;;;5115979;28;20019;-62
2021/09/25 00:22:52;;;;;;;14.63;9.30;;;410.30;1792.00;;;;;;5115555;28;20488;-62
2021/09/25 00:25:18;;;;;;;11.52;8.73;;;410.30;1792.00;;;;;;5115875;28;20043;-62
2021/09/25 00:27:44;;;;;;;13.02;9.27;;;410.30;1766.40;;;;;;5115405;28;20051;-62
2021/09/25 00:30:11;;;;;;;13.93;9.27;;;410.30;1792.00;;;;;;5115746;28;20016;-62
2021/09/25 00:32:38;;;;;;;11.05;9.07;;;410.30;1792.00;;;;;;5115067;27;20099;-62
2021/09/25 00:35:06;;;;;;;12.15;8.73;;;410.30;1792.00;;;;;;5113931;28;20031;-62
2021/09/25 00:37:32;;;;;;;11.32;8.77;;;410.30;1792.00;;;;;;5115142;28;20557;-62
2021/09/25 00:39:57;;;;;;;11.32;9.00;;;410.20;1792.00;;;;;;5115152;28;20028;-62
2021/09/25 00:42:24;;;;;;;10.45;8.93;;;410.10;1817.60;;;;;;5114053;28;20173;-62
2021/09/25 00:44:49;;;;;;;16.27;8.73;;;410.10;1817.60;;;;;;5115158;28;20362;-62
2021/09/25 00:47:15;;;;;;;12.05;7.95;;;410.10;1792.00;;;;;;5114952;28;20026;-62
2021/09/25 00:49:41;;;;;;;12.18;9.02;;;410.10;1792.00;;;;;;5115322;28;20020;-62
2021/09/25 00:52:07;;;;;;;11.98;8.45;;;410.10;1817.60;;;;;;5115126;28;20457;-62
2021/09/25 00:54:33;;;;;;;10.13;8.52;;;410.10;1817.60;;;;;;5115076;28;20080;-62
2021/09/25 00:57:00;;;;;;;12.52;8.35;;;410.10;1817.60;;;;;;5114797;28;20026;-62
2021/09/25 00:59:26;;;;;;;9.35;8.13;;;410.10;1817.60;;;;;;5114835;28;20108;-62
2021/09/25 01:01:53;;;;;;;10.15;7.70;;;410.10;1817.60;;;;;;5114864;28;20107;-62
2021/09/25 01:04:18;;;;;;;11.27;7.57;;;410.10;1817.60;;;;;;5115122;28;20027;-63
2021/09/25 01:06:44;;;;;;;8.38;7.28;;;410.10;1817.60;;;;;;5114599;28;20030;-62
2021/09/25 01:09:10;;;;;;;13.00;7.70;;;410.10;1817.60;;;;;;5114580;28;20066;-62
2021/09/25 01:11:36;;;;;;;13.48;7.60;;;410.20;1817.60;;;;;;5113225;28;20020;-62
2021/09/25 01:14:03;;;;;;;10.18;8.23;;;410.20;1817.60;;;;;;5114583;28;20046;-62
2021/09/25 01:16:29;;;;;;;11.75;8.23;;;410.10;1817.60;;;;;;5114922;28;20031;-62
2021/09/25 01:18:55;;;;;;;12.10;8.50;;;410.20;1817.60;;;;;;5115106;28;20411;-62
2021/09/25 01:21:20;;;;;;;10.68;8.30;;;410.10;1817.60;;;;;;5114563;28;20056;-62
2021/09/25 01:23:46;;;;;;;14.75;9.38;;;410.10;1817.60;;;;;;5114204;28;20036;-62
2021/09/25 01:26:13;;;;;;;12.77;8.93;;;410.10;1817.60;;;;;;5113056;28;20112;-62
2021/09/25 01:28:40;;;;;;;13.90;9.30;;;410.10;1817.60;;;;;;5114536;28;20027;-62
2021/09/25 01:31:07;;;;;;;11.35;8.85;;;410.10;1817.60;;;;;;5112975;28;20420;-62
2021/09/25 01:33:38;;;;;;;14.35;10.13;;;410.00;1817.60;;;;;;5114650;28;20023;-62
2021/09/25 01:36:06;;;;;;;17.85;9.63;;;410.10;1817.60;;;;;;5113156;28;20389;-62
2021/09/25 01:38:33;;;;;;;14.40;8.82;;;410.00;1817.60;;;;;;5112392;28;20042;-62
2021/09/25 01:40:59;;;;;;;11.50;8.65;;;410.00;1817.60;;;;;;5114209;28;20031;-62
2021/09/25 01:43:25;;;;;;;15.07;9.48;;;410.00;1843.20;;;;;;5114179;28;20096;-62
2021/09/25 01:45:50;;;;;;;10.50;8.18;;;410.10;1817.60;;;;;;5114428;28;20504;-62
2021/09/25 01:48:18;;;;;;;18.02;9.50;;;410.10;1817.60;;;;;;5114177;28;20067;-62
2021/09/25 01:50:45;;;;;;;15.57;8.57;;;410.00;1817.60;;;;;;5114213;28;20020;-62
2021/09/25 01:53:11;;;;;;;13.20;9.35;;;410.00;1817.60;;;;;;5114180;28;20069;-61
2021/09/25 01:55:37;;;;;;;9.98;8.77;;;410.00;1843.20;;;;;;5113615;28;20469;-64
2021/09/25 01:58:02;;;;;;;10.50;8.80;;;410.00;1843.20;;;;;;5114106;28;20020;-62
2021/09/25 02:00:28;;;;;;;10.43;8.57;;;409.90;1843.20;;;;;;5114148;28;20020;-62
2021/09/25 02:02:55;;;;;;;12.07;8.95;;;409.90;1843.20;;;;;;5114006;28;20492;-62
2021/09/25 02:05:22;;;;;;;10.73;8.45;;;409.90;1843.20;;;;;;5112743;28;20031;-62
2021/09/25 02:07:49;;;;;;;12.23;8.90;;;409.90;1843.20;;;;;;5112130;28;20373;-62
2021/09/25 02:10:15;;;;;;;12.85;8.73;;;409.90;1843.20;;;;;;5114017;28;20043;-62
2021/09/25 02:12:42;;;;;;;12.65;8.55;;;409.80;1843.20;;;;;;5113830;28;20028;-62
2021/09/25 02:15:08;;;;;;;15.63;10.60;;;409.80;1843.20;;;;;;5113976;28;20027;-62
2021/09/25 02:17:34;;;;;;;12.73;8.55;;;409.80;1843.20;;;;;;5113631;28;20077;-62
2021/09/25 02:20:00;;;;;;;12.02;9.00;;;409.70;1843.20;;;;;;5112230;28;20027;-62
2021/09/25 02:22:26;;;;;;;12.73;8.98;;;409.70;1843.20;;;;;;5113700;28;20162;-62
2021/09/25 02:24:52;;;;;;;11.02;8.93;;;409.70;1843.20;;;;;;5112330;28;20032;-62
2021/09/25 02:27:18;;;;;;;13.40;9.05;;;409.70;1843.20;;;;;;5112283;28;20024;-62
2021/09/25 02:29:44;;;;;;;10.75;9.07;;;409.60;1843.20;;;;;;5113955;28;20358;-62
2021/09/25 02:32:09;;;;;;;13.65;9.50;;;409.60;1843.20;;;;;;5113934;28;20028;-62
2021/09/25 02:34:36;;;;;;;15.68;8.88;;;409.60;1843.20;;;;;;5113674;28;20461;-62
2021/09/25 02:37:02;;;;;;;19.95;9.35;;;409.60;1868.80;;;;;;5113596;28;20031;-61
2021/09/25 02:39:29;;;;;;;12.52;9.27;;;384.90;1843.20;;;;;;5113546;28;20016;-62
2021/09/25 02:41:55;;;;;;;14.02;8.60;;;409.60;1868.80;;;;;;5113440;28;20565;-62
2021/09/25 02:44:21;;;;;;;12.40;8.85;;;409.60;1868.80;;;;;;5113702;28;20027;-62
2021/09/25 02:46:50;;;;;;;12.80;8.75;;;409.60;1868.80;;;;;;5113549;28;20078;-62
2021/09/25 02:49:17;;;;;;;14.25;9.35;;;409.60;1868.80;;;;;;5113670;28;20028;-62
2021/09/25 02:51:44;;;;;;;14.02;8.50;;;409.70;1868.80;;;;;;5113563;28;20028;-62
2021/09/25 02:54:10;;;;;;;10.45;8.80;;;409.60;1868.80;;;;;;5112085;28;20040;-63
2021/09/25 02:56:36;;;;;;;17.63;9.85;;;409.60;1868.80;;;;;;5113561;28;20366;-64
2021/09/25 02:59:02;;;;;;;18.30;9.48;;;409.60;1868.80;;;;;;5113479;28;20472;-62
2021/09/25 03:01:28;;;;;;;14.63;9.13;;;409.60;1894.40;;;;;;5113475;28;20038;-62
2021/09/25 03:03:54;;;;;;;21.58;9.93;;;409.60;1894.40;;;;;;5113409;28;20122;-62
2021/09/25 03:06:24;;;;;;;11.63;9.02;;;409.60;1894.40;;;;;;5114601;28;20024;-62
2021/09/25 03:08:50;;;;;;;14.00;9.77;;;409.70;1868.80;;;;;;5117095;28;20385;-62
2021/09/25 03:11:16;;;;;;;15.45;8.65;;;409.70;1868.80;;;;;;5116885;28;20016;-62
2021/09/25 03:13:42;;;;;;;17.40;9.20;;;409.70;1868.80;;;;;;5116828;28;20027;-62
2021/09/25 03:16:08;;;;;;;20.85;9.98;;;409.70;1868.80;;;;;;5116828;28;20030;-63
2021/09/25 03:18:34;;;;;;;13.07;9.18;;;409.70;1868.80;;;;;;5116882;28;20027;-62
2021/09/25 03:21:00;;;;;;;12.68;8.68;;;409.80;1868.80;;;;;;5117013;28;20080;-62
2021/09/25 03:23:26;;;;;;;11.65;8.68;;;409.80;1868.80;;;;;;5116833;28;20118;-62
2021/09/25 03:25:52;;;;;;;12.90;8.93;;;409.80;1894.40;;;;;;5116604;28;20026;-62
2021/09/25 03:28:18;;;;;;;14.07;9.52;;;409.80;1868.80;;;;;;5116668;28;20030;-62
2021/09/25 03:30:43;;;;;;;10.98;8.88;;;409.80;1868.80;;;;;;5115262;28;20361;-62
2021/09/25 03:33:09;;;;;;;13.25;9.00;;;409.80;1868.80;;;;;;5116236;28;20036;-62
2021/09/25 03:35:35;;;;;;;10.20;8.90;;;409.80;1868.80;;;;;;5116290;28;20023;-62
2021/09/25 03:38:01;;;;;;;11.70;9.32;;;409.80;1868.80;;;;;;5115202;28;20019;-62
2021/09/25 03:40:27;;;;;;;16.90;9.13;;;409.80;1894.40;;;;;;5116834;28;20027;-62
2021/09/25 03:42:53;;;;;;;13.40;9.25;;;409.80;1894.40;;;;;;5115882;28;20043;-62
2021/09/25 03:45:19;;;;;;;11.73;9.15;;;409.80;1894.40;;;;;;5116462;28;20043;-62
2021/09/25 03:47:45;;;;;;;13.20;9.57;;;409.80;1894.40;;;;;;5116393;28;20352;-62
2021/09/25 03:50:12;;;;;;;12.40;9.07;;;409.80;1894.40;;;;;;5116396;28;20026;-62
2021/09/25 03:52:38;;;;;;;13.55;9.52;;;409.80;1894.40;;;;;;5116124;28;20058;-62
2021/09/25 03:55:06;;;;;;;18.75;9.48;;;409.70;1894.40;;;;;;5115682;28;20055;-62
2021/09/25 03:57:32;;;;;;;16.40;10.02;;;409.70;1894.40;;;;;;5114638;28;20401;-62
2021/09/25 03:59:58;;;;;;;11.35;8.98;;;409.70;1894.40;;;;;;5115954;28;20024;-62
2021/09/25 04:02:23;;;;;;;12.38;9.23;;;409.70;1894.40;;;;;;5114675;28;20058;-62
2021/09/25 04:04:49;;;;;;;14.40;9.90;;;409.70;1894.40;;;;;;5116224;28;20414;-62
2021/09/25 04:07:15;;;;;;;12.52;9.68;;;409.60;1894.40;;;;;;5115709;28;20028;-62
2021/09/25 04:09:41;;;;;;;14.38;9.55;;;409.60;1894.40;;;;;;5115984;28;20024;-62
2021/09/25 04:12:06;;;;;;;13.65;9.73;;;409.60;1894.40;;;;;;5114247;28;20036;-62
2021/09/25 04:14:32;;;;;;;14.70;9.00;;;409.60;1894.40;;;;;;5115547;28;20469;-62
2021/09/25 04:16:58;;;;;;;15.05;10.13;;;409.60;1894.40;;;;;;5115458;28;20031;-62
2021/09/25 04:19:25;;;;;;;16.67;10.25;;;409.60;1894.40;;;;;;5115847;28;20026;-62
2021/09/25 04:21:50;;;;;;;13.88;9.93;;;384.90;1868.80;;;;;;5115667;28;20057;-62
2021/09/25 04:24:16;;;;;;;15.80;10.27;;;384.90;1868.80;;;;;;5115346;28;20027;-62
2021/09/25 04:26:42;;;;;;;15.27;10.00;;;384.90;1894.40;;;;;;5114118;28;20024;-62
2021/09/25 04:29:08;;;;;;;11.75;10.02;;;384.90;1894.40;;;;;;5115555;28;20019;-62
2021/09/25 04:31:35;;;;;;;12.80;9.73;;;384.80;1894.40;;;;;;5113970;28;20039;-62
2021/09/25 04:34:02;;;;;;;16.30;11.15;;;384.80;1894.40;;;;;;5115586;28;20027;-62
2021/09/25 04:36:28;;;;;;;14.85;10.50;;;384.80;1894.40;;;;;;5115332;28;20081;-62
2021/09/25 04:38:54;;;;;;;19.17;13.23;;;384.80;1894.40;;;;;;5115332;28;20303;-62
2021/09/25 04:41:20;;;;;;;18.70;12.85;;;384.80;1894.40;;;;;;5114695;28;20039;-63
2021/09/25 04:43:45;;;;;;;23.02;14.27;;;384.80;1894.40;;;;;;5115043;28;20110;-62
2021/09/25 04:46:11;;;;;;;21.88;14.70;;;384.80;1894.40;;;;;;5115121;28;20369;-62
2021/09/25 04:48:37;;;;;;;23.48;15.82;;;384.80;1894.40;;;;;;5115337;28;20028;-62
2021/09/25 04:51:04;;;;;;;19.77;16.48;;;384.80;1894.40;;;;;;5114942;28;20028;-62
2021/09/25 04:53:32;;;;;;;23.90;18.50;;;384.80;1894.40;;;;;;5115141;28;20419;-62
2021/09/25 04:55:58;;;;;;;28.77;19.45;;;384.80;1894.40;;;;;;5113470;28;20035;-62
2021/09/25 04:58:29;;;;;;;25.30;19.17;;;384.80;1894.40;;;;;;5115418;28;20032;-62
2021/09/25 05:00:58;;;;;;;30.92;21.85;;;384.80;1894.40;;;;;;5114863;28;20480;-62
2021/09/25 05:03:25;;;;;;;29.95;23.13;;;384.80;1894.40;;;;;;5115215;28;20516;-61
2021/09/25 05:05:51;;;;;;;33.72;25.02;;;384.70;1920.00;;;;;;5115159;28;20411;-62
2021/09/25 05:08:17;;;;;;;35.50;25.45;;;384.70;1894.40;;;;;;5114215;28;20020;-62
2021/09/25 05:10:43;;;;;;;35.88;26.02;;;384.70;1920.00;;;;;;5114797;28;20373;-62
2021/09/25 05:13:09;;;;;;;34.72;25.33;;;384.70;1894.40;;;;;;5114776;28;20024;-62
2021/09/25 05:15:34;;;;;;;35.60;24.52;;;384.70;1894.40;;;;;;5115087;28;20019;-62
2021/09/25 05:18:00;;;;;;;39.60;24.83;;;384.80;1894.40;;;;;;5114672;28;20533;-62
2021/09/25 05:20:26;;;;;;;36.38;24.25;;;384.80;1894.40;;;;;;5114674;28;20023;-62
2021/09/25 05:22:52;;;;;;;42.58;23.83;;;384.80;1920.00;;;;;;5114528;28;20042;-62
2021/09/25 05:25:17;;;;;;;38.45;24.10;;;384.80;1920.00;;;;;;5114131;28;20484;-62
2021/09/25 05:27:43;;;;;;;36.40;25.60;;;384.80;1920.00;;;;;;5114463;28;20023;-62
2021/09/25 05:30:11;;;;;;;38.05;23.92;;;384.80;1920.00;;;;;;5112603;28;20104;-62
2021/09/25 05:32:37;;;;;;;37.67;23.83;;;384.80;1920.00;;;;;;5114465;28;20015;-62
2021/09/25 05:35:04;;;;;;;33.38;24.08;;;384.90;1920.00;;;;;;5114645;28;20028;-62
2021/09/25 05:37:30;;;;;;;43.50;23.90;;;384.90;1920.00;;;;;;5114337;28;20055;-62
2021/09/25 05:39:56;;;;;;;34.92;22.85;;;384.90;1920.00;;;;;;5113030;28;20066;-62
2021/09/25 05:42:26;;;;;;;36.10;24.17;;;409.60;1945.60;;;;;;5114035;28;20039;-62
2021/09/25 05:44:54;;;;;;;35.17;22.92;;;409.60;1945.60;;;;;;5114505;28;20069;-62
2021/09/25 05:47:21;;;;;;;32.90;21.83;;;409.60;1945.60;;;;;;5114225;28;20011;-62
2021/09/25 05:49:47;;;;;;;33.92;21.27;;;409.70;1945.60;;;;;;5114129;28;20457;-62
2021/09/25 05:52:14;;;;;;;28.95;20.80;;;409.70;1945.60;;;;;;5114151;28;20119;-62
2021/09/25 05:54:40;;;;;;;30.33;19.60;;;409.70;1945.60;;;;;;5114414;28;20020;-62
2021/09/25 05:57:07;;;;;;;23.25;17.90;;;409.70;1945.60;;;;;;5113910;28;20108;-62
2021/09/25 05:59:33;;;;;;;23.50;17.40;;;409.70;1971.20;;;;;;5114051;28;20019;-62
2021/09/25 06:01:59;;;;;;;21.52;16.50;;;409.80;1945.60;;;;;;5114117;28;20020;-62
2021/09/25 06:04:25;;;;;;;26.65;16.25;;;409.80;1945.60;;;;;;5113697;28;20036;-62
2021/09/25 06:06:51;;;;;;;22.38;15.02;;;409.80;1945.60;;;;;;5113978;28;20015;-62
2021/09/25 06:09:16;;;;;;;21.98;14.40;;;410.00;1971.20;;;;;;5114174;28;20426;-62
2021/09/25 06:11:42;;;;;;;17.88;13.93;;;410.00;1971.20;;;;;;5113848;28;20028;-62
2021/09/25 06:14:08;;;;;;;16.85;12.75;;;410.10;1971.20;;;;;;5113956;28;20032;-62
2021/09/25 06:16:34;;;;;;;12.88;10.80;;;410.10;1971.20;;;;;;5112247;28;20039;-62
2021/09/25 06:19:00;;;;;;;16.70;10.63;;;410.10;1945.60;;;;;;5113614;28;20377;-62
2021/09/25 06:21:26;;;;;;;11.77;10.45;;;410.20;1945.60;;;;;;5113886;28;20023;-62
2021/09/25 06:23:51;;;;;;;12.10;9.55;;;410.20;1945.60;;;;;;5113313;28;20430;-62
2021/09/25 06:26:17;;;;;;;10.07;8.63;;;410.30;1945.60;;;;;;5114056;28;20045;-62
2021/09/25 06:28:46;;;;;;;9.30;8.10;;;410.40;1945.60;;;;;;5113822;28;20125;-62
2021/09/25 06:31:17;;;;;;;12.25;7.75;;;410.40;1945.60;;;;;;5113892;28;20050;-62
2021/09/25 06:33:44;;;;;;;10.80;7.40;;;410.50;1945.60;;;;;;5113523;28;20035;-62
2021/09/25 06:36:11;;;;;;;12.02;8.32;;;435.20;1945.60;;;;;;5113557;28;20350;-61
2021/09/25 06:38:37;;;;;;;11.80;7.72;;;435.20;1945.60;;;;;;5113477;28;20027;-62
2021/09/25 06:41:03;;;;;;;8.77;7.07;;;435.30;1945.60;;;;;;5113505;28;20030;-61
2021/09/25 06:43:29;;;;;;;13.45;7.50;;;435.40;1945.60;;;;;;5117418;28;20093;-61
2021/09/25 06:45:54;;;;;;;9.45;7.20;;;435.40;1945.60;;;;;;5115948;28;20481;-61
2021/09/25 06:48:20;;;;;;;8.68;7.15;;;435.60;1920.00;;;;;;5117296;28;20039;-62
2021/09/25 06:50:46;;;;;;;10.15;7.35;;;435.60;1945.60;;;;;;5117510;28;20027;-61
2021/09/25 06:53:12;;;;;;;15.57;7.22;;;435.70;1920.00;;;;;;5117327;28;20027;-62
2021/09/25 06:55:37;;;;;;;12.20;7.68;;;435.80;1945.60;;;;;;5116609;28;20015;-65
2021/09/25 06:58:05;;;;;;;8.43;7.40;;;435.90;1920.00;;;;;;5116786;27;20027;-62
2021/09/25 07:00:31;;;;;;;10.05;7.20;;;436.00;1920.00;;;;;;5114016;28;20024;-63
2021/09/25 07:02:57;;;;;;;8.52;6.82;;;436.10;1894.40;;;;;;5116935;28;20028;-62
2021/09/25 07:05:22;;;;;;;9.77;6.97;;;436.10;1920.00;;;;;;5116949;28;20374;-62
2021/09/25 07:07:49;;;;;;;15.15;7.00;;;460.90;1920.00;;;;;;5115694;28;20032;-61
2021/09/25 07:10:16;;;;;;;9.88;6.68;;;461.00;1920.00;;;;;;5115314;28;20063;-62
2021/09/25 07:12:41;;;;;;;11.82;7.05;;;461.10;1920.00;;;;;;5116326;28;20020;-63
2021/09/25 07:15:08;;;;;;;8.52;6.15;;;461.20;1894.40;;;;;;5114896;28;20085;-62
2021/09/25 07:17:34;;;;;;;10.85;6.50;;;461.30;1868.80;;;;;;5116374;28;20056;-62
2021/09/25 07:20:00;;;;;;;12.32;6.07;;;461.50;1843.20;;;;;;5116661;28;20106;-63
2021/09/25 07:22:25;;;;;;;13.35;5.72;;;461.60;1843.20;;;;;;5116246;28;20111;-63
2021/09/25 07:24:54;;;;;;;8.85;5.30;;;486.40;1817.60;;;;;;5116359;27;20461;-63
2021/09/25 07:27:22;;;;;;;13.18;5.90;;;486.50;1817.60;;;;;;5116778;28;20031;-63
2021/09/25 07:29:48;;;;;;;35.30;12.90;;;486.70;1817.60;;;;;;5116312;28;20485;-63
2021/09/25 07:32:15;;;;;;;20.92;11.50;;;486.80;1792.00;;;;;;5116630;28;20488;-63
2021/09/25 07:34:41;;;;;;;11.43;7.53;;;487.00;1792.00;;;;;;5114633;28;20062;-63
2021/09/25 07:37:07;;;;;;;9.15;6.50;;;487.10;1766.40;;;;;;5116237;28;20020;-63
2021/09/25 07:39:34;;;;;;;8.93;5.13;;;487.20;1740.80;;;;;;5115947;28;20080;-64
2021/09/25 07:42:00;;;;;;;8.38;5.00;;;487.30;1740.80;;;;;;5114863;28;20050;-63
2021/09/25 07:44:26;;;;;;;7.50;4.38;;;512.00;1715.20;;;;;;5116574;28;20038;-64
2021/09/25 07:46:52;;;;;;;4.63;3.97;;;512.20;1689.60;;;;;;5115813;28;20027;-63
2021/09/25 07:49:18;;;;;;;5.93;3.78;;;512.30;1664.00;;;;;;5115690;28;20024;-63
2021/09/25 07:51:43;;;;;;;6.07;3.78;;;512.50;1638.40;;;;;;5116007;28;20374;-63
2021/09/25 07:54:09;;;;;;;6.10;3.65;;;512.60;1612.80;;;;;;5116270;28;20034;-63
2021/09/25 07:56:35;;;;;;;4.18;3.20;;;512.80;1587.20;;;;;;5116350;28;20080;-64
2021/09/25 07:59:00;;;;;;;5.35;3.15;;;512.90;1587.20;;;;;;5116043;28;20458;-64
2021/09/25 08:01:26;;;;;;;6.40;2.85;;;537.60;1612.80;;;;;;5114839;28;20032;-64
2021/09/25 08:03:52;;;;;;;7.82;3.30;;;537.70;1587.20;;;;;;5116036;28;20412;-64
2021/09/25 08:06:19;;;;;;;4.63;2.90;;;537.80;1587.20;;;;;;5116367;28;20019;-64
2021/09/25 08:08:45;;;;;;;8.18;3.00;;;537.90;1587.20;;;;;;5115981;28;20039;-64
2021/09/25 08:11:11;;;;;;;5.20;2.90;;;538.10;1561.60;;;;;;5115972;28;20023;-64
2021/09/25 08:13:37;;;;;;;8.15;2.67;;;538.20;1536.00;;;;;;5115911;28;20120;-63
2021/09/25 08:16:03;;;;;;;4.28;2.80;;;538.30;1510.40;;;;;;5114494;28;20472;-64
2021/09/25 08:18:29;;;;;;;5.13;2.95;;;538.30;1510.40;;;;;;5115827;28;20023;-64
2021/09/25 08:20:56;;;;;;;9.40;3.15;;;538.40;1510.40;;;;;;5115896;28;20026;-64
2021/09/25 08:23:22;;;;;;;12.68;3.58;;;563.20;1536.00;;;;;;5115669;28;20035;-64
2021/09/25 08:25:48;;;;;;;9.20;3.03;;;563.20;1536.00;;;;;;5114979;28;20385;-64
2021/09/25 08:28:14;;;;;;;3.38;2.70;;;563.30;1510.40;;;;;;5115657;28;20032;-63
2021/09/25 08:30:39;;;;;;;5.40;2.90;;;563.40;1484.80;;;;;;5115412;28;20473;-64
2021/09/25 08:33:05;;;;;;;3.45;2.83;;;563.50;1484.80;;;;;;5115623;28;20123;-64
2021/09/25 08:35:31;;;;;;;9.95;2.70;;;563.60;1484.80;;;;;;5115459;28;20528;-63
2021/09/25 08:37:57;;;;;;;6.20;2.13;;;563.70;1433.60;;;;;;5115492;28;20028;-63
2021/09/25 08:40:23;;;;;;;3.78;2.85;;;563.80;1433.60;;;;;;5115409;28;20020;-64
2021/09/25 08:42:51;;;;;;;4.88;2.33;;;563.90;1433.60;;;;;;5114855;28;20477;-64
2021/09/25 08:45:18;;;;;;;8.73;2.95;;;564.00;1433.60;;;;;;5115396;28;20031;-64
2021/09/25 08:47:44;;;;;;;8.40;2.67;;;564.00;1408.00;;;;;;5115561;28;20120;-64
2021/09/25 08:50:12;;;;;;;4.28;2.80;;;564.10;1408.00;;;;;;5115278;28;20521;-64
2021/09/25 08:52:38;;;;;;;2.30;2.10;;;588.80;1408.00;;;;;;5115161;28;20487;-63
2021/09/25 08:55:04;;;;;;;4.50;2.05;;;588.80;1382.40;;;;;;5113718;28;20435;-64
2021/09/25 08:57:30;;;;;;;2.97;1.98;;;588.80;1356.80;;;;;;5113125;28;20107;-64
2021/09/25 08:59:56;;;;;;;3.25;2.00;;;589.00;1356.80;;;;;;5113627;28;20457;-64
2021/09/25 09:02:22;;;;;;;2.60;2.38;;;589.00;1356.80;;;;;;5114966;28;20031;-63
2021/09/25 09:04:49;;;;;;;4.18;2.28;;;589.10;1356.80;;;;;;5112883;28;20469;-64
2021/09/25 09:07:18;;;;;;;2.78;2.28;;;589.10;1356.80;;;;;;5114630;28;20465;-64
2021/09/25 09:09:44;;;;;;;5.80;2.28;;;589.20;1408.00;;;;;;5114680;28;20099;-64
2021/09/25 09:12:11;;;;;;;11.30;2.63;;;589.30;1382.40;;;;;;5114686;28;20034;-64
2021/09/25 09:14:45;;;;;;;5.43;2.22;;;589.40;1356.80;;;;;;5113196;28;20035;-64
2021/09/25 09:17:24;;;;;;;4.25;2.10;;;589.50;1356.80;;;;;;5114612;28;20034;-63
2021/09/25 09:19:50;;;;;;;3.35;2.35;;;589.60;1356.80;;;;;;5114646;28;20031;-63
2021/09/25 09:22:18;;;;;;;5.05;2.33;;;589.60;1356.80;;;;;;5114482;28;20039;-63
2021/09/25 09:24:52;;;;;;;5.82;2.47;;;589.60;1331.20;;;;;;5113097;28;20057;-64
2021/09/25 09:27:27;;;;;;;6.78;2.40;;;589.70;1305.60;;;;;;5113122;28;20032;-64
2021/09/25 09:30:14;;;;;;;11.02;2.83;;;589.70;1305.60;;;;;;5114537;28;20023;-64
2021/09/25 09:32:41;;;;;;;4.15;2.40;;;589.70;1305.60;;;;;;5114483;28;20039;-64
2021/09/25 09:35:10;;;;;;;3.25;2.15;;;589.70;1305.60;;;;;;5114484;28;20020;-64
2021/09/25 09:37:36;;;;;;;4.38;2.50;;;614.40;1331.20;;;;;;5114489;28;20078;-63
2021/09/25 09:40:04;;;;;;;7.95;2.78;;;614.50;1305.60;;;;;;5114101;28;20468;-64
2021/09/25 09:42:49;;;;;;;8.40;2.45;;;614.50;1331.20;;;;;;5113241;28;20521;-63
2021/09/25 09:45:26;;;;;;;9.88;3.88;;;614.70;1305.60;;;;;;5114490;28;20077;-64
2021/09/25 09:47:52;;;;;;;7.28;2.40;;;614.70;1305.60;;;;;;5114274;28;20039;-63
2021/09/25 09:50:19;;;;;;;7.57;3.05;;;614.70;1280.00;;;;;;5114352;28;20027;-66
2021/09/25 09:52:45;;;;;;;6.55;2.47;;;614.70;1254.40;;;;;;5114101;28;20045;-64
2021/09/25 09:55:23;;;;;;;6.30;3.20;;;614.70;1254.40;;;;;;5114095;28;20102;-64
2021/09/25 09:58:05;;;;;;;4.88;3.13;;;614.80;1254.40;;;;;;5113917;28;20023;-64
2021/09/25 10:00:31;;;;;;;5.15;3.13;;;614.90;1280.00;;;;;;5114166;28;20023;-64
2021/09/25 10:02:57;;;;;;;6.07;3.00;;;614.90;1254.40;;;;;;5113942;28;20459;-64
2021/09/25 10:05:23;;;;;;;7.20;2.72;;;615.00;1254.40;;;;;;5112793;28;20042;-64
2021/09/25 10:07:50;;;;;;;8.35;2.90;;;615.00;1254.40;;;;;;5114076;28;20136;-64
2021/09/25 10:10:15;;;;;;;5.45;3.40;;;615.00;1254.40;;;;;;5113738;28;20098;-63
2021/09/25 10:12:42;;;;;;;13.10;5.38;;;615.00;1228.80;;;;;;5113837;28;20429;-63
2021/09/25 10:15:08;;;;;;;10.50;6.13;;;615.00;1228.80;;;;;;5115191;28;20023;-63
2021/09/25 10:17:34;;;;;;;11.63;5.85;;;615.10;1228.80;;;;;;5118367;28;20070;-63
2021/09/25 10:20:01;;;;;;;12.30;5.70;;;615.10;1228.80;;;;;;5116771;28;20069;-63
2021/09/25 10:22:30;;;;;;;8.23;4.72;;;615.10;1228.80;;;;;;5117775;28;20385;-63
2021/09/25 10:24:57;;;;;;;11.60;4.78;;;615.20;1228.80;;;;;;5116415;28;20035;-63
2021/09/25 10:27:27;;;;;;;8.88;4.63;;;615.20;1254.40;;;;;;5117646;28;20019;-63
2021/09/25 10:29:53;;;;;;;8.75;5.22;;;615.20;1254.40;;;;;;5117535;28;20031;-63
2021/09/25 10:32:29;;;;;;;8.98;4.85;;;615.20;1254.40;;;;;;5116263;28;20080;-63
2021/09/25 10:35:11;;;;;;;13.50;5.65;;;615.30;1228.80;;;;;;5117956;28;20019;-63
2021/09/25 10:37:49;;;;;;;12.38;6.95;;;615.30;1228.80;;;;;;5117794;28;20016;-63
2021/09/25 10:40:23;;;;;;;11.10;6.10;;;640.10;1203.20;;;;;;5116382;28;20131;-63
2021/09/25 10:42:57;;;;;;;19.88;7.72;;;640.10;1203.20;;;;;;5115943;28;20039;-63
2021/09/25 10:45:32;;;;;;;24.90;6.93;;;640.10;1228.80;;;;;;5116432;28;20031;-64
2021/09/25 10:48:09;;;;;;;17.45;6.53;;;640.10;1203.20;;;;;;5117472;28;20073;-63
2021/09/25 10:50:39;;;;;;;10.70;5.50;;;640.10;1177.60;;;;;;5117759;28;20430;-63
2021/09/25 10:53:11;;;;;;;11.60;5.72;;;640.20;1203.20;;;;;;5117589;28;20028;-63
2021/09/25 10:55:38;;;;;;;8.75;5.40;;;640.30;1177.60;;;;;;5117385;27;20016;-63
2021/09/25 10:58:36;;;;;;;11.77;5.50;;;640.30;1203.20;;;;;;5117288;28;20507;-64
2021/09/25 11:01:09;;;;;;;9.60;4.40;;;640.40;1203.20;;;;;;5037744;28;20040;-63
2021/09/25 11:03:44;;;;;;;6.80;4.22;;;640.50;1177.60;;;;;;5053941;28;20045;-63
2021/09/25 11:06:25;;;;;;;5.68;4.50;;;640.50;1177.60;;;;;;5054805;28;20033;-63
2021/09/25 11:08:53;;;;;;;9.00;4.55;;;640.50;1177.60;;;;;;5054375;28;20021;-63
2021/09/25 11:11:30;;;;;;;19.25;4.47;;;640.50;1177.60;;;;;;5054239;28;20086;-63
2021/09/25 11:14:02;;;;;;;8.23;5.13;;;640.50;1152.00;;;;;;5054062;28;20080;-63
2021/09/25 11:16:53;;;;;;;10.05;4.43;;;640.60;1152.00;;;;;;5054145;28;20060;-63
2021/09/25 11:19:21;;;;;;;6.82;4.35;;;640.60;1152.00;;;;;;5054206;28;20033;-63
2021/09/25 11:22:07;;;;;;;12.02;4.60;;;640.60;1177.60;;;;;;5054216;28;20029;-64
2021/09/25 11:24:39;;;;;;;8.88;4.57;;;640.70;1152.00;;;;;;5053952;28;20045;-63
2021/09/25 11:27:23;;;;;;;9.00;4.82;;;640.70;1152.00;;;;;;5052980;28;20403;-63
2021/09/25 11:30:00;;;;;;;8.25;4.97;;;640.70;1126.40;;;;;;5054011;28;20548;-63
2021/09/25 11:32:39;;;;;;;8.18;5.18;;;640.80;1152.00;;;;;;5037293;28;20029;-63
2021/09/25 11:35:08;;;;;;;8.40;4.28;;;640.80;1152.00;;;;;;5037116;28;20025;-63
2021/09/25 11:37:34;;;;;;;13.40;4.97;;;640.80;1152.00;;;;;;5073656;28;20438;-63
2021/09/25 11:40:01;;;;;;;9.05;4.70;;;640.80;1152.00;;;;;;5116700;28;20023;-63
2021/09/25 11:42:29;;;;;;;11.98;5.05;;;640.90;1152.00;;;;;;5116069;28;20065;-63
2021/09/25 11:44:59;;;;;;;11.55;5.70;;;665.60;1177.60;;;;;;5116388;28;20032;-63
2021/09/25 11:47:26;;;;;;;10.88;4.15;;;665.60;1152.00;;;;;;5116841;28;20373;-63
2021/09/25 11:49:57;;;;;;;6.72;4.35;;;665.70;1152.00;;;;;;5116218;28;20408;-63
2021/09/25 11:52:24;;;;;;;7.47;4.13;;;665.70;1152.00;;;;;;5116513;28;20054;-63
2021/09/25 11:54:50;;;;;;;7.03;4.25;;;665.80;1126.40;;;;;;5116418;28;20030;-63
2021/09/25 11:57:24;;;;;;;8.25;3.85;;;665.80;1126.40;;;;;;5116328;28;20103;-63
2021/09/25 11:59:51;;;;;;;;;;;665.90;1126.40;;;;;;5116306;28;20034;-64
2021/09/25 12:02:35;;;;;;;9.40;3.90;;;666.00;1126.40;;;;;;5115955;28;19904;-63
2021/09/25 12:05:01;;;;;;;4.15;3.38;;;666.00;1126.40;;;;;;5116159;28;20103;-63
2021/09/25 12:07:46;;;;;;;7.28;4.30;;;666.00;1126.40;;;;;;5115861;28;20051;-63
2021/09/25 12:10:23;;;;;;;8.93;3.70;;;666.00;1126.40;;;;;;5116307;28;20024;-63
2021/09/25 12:13:03;;;;;;;9.73;3.47;;;666.00;1126.40;;;;;;5114409;28;20078;-63